MAS602 WSSS-WMKK
Flight info
| Callsign | MAS602 |
|---|---|
| Flight time | 0h 43m |
| Altitude | 26000 |
| Route | MASBO A457 GUPTA |
| Aircraft | B738/M-SDE2E3FGHIRWXY/LB1 |
Departure
| Time | 2026-05-08 07:25 |
|---|---|
| Airport | Singapore Changi Airport (WSSS) |
Arrival
| Time | 2026-05-08 08:09 |
|---|---|
| Airport | Kuala Lumpur International Airport (WMKK) |
| Time | Latitude | Longitude | Altitude | Speed | Heading |
|---|---|---|---|---|---|
| 2026-05-08 06:48 | 1.35235 | 103.98898 | 26 ft | 0 kts | 293° |
| 2026-05-08 07:14 | 1.35232 | 103.98907 | 28 ft | 4 kts | 293° |
| 2026-05-08 07:14 | 1.35221 | 103.98932 | 26 ft | 4 kts | 292° |
| 2026-05-08 07:15 | 1.35214 | 103.98957 | 26 ft | 4 kts | 270° |
| 2026-05-08 07:15 | 1.35220 | 103.98981 | 26 ft | 4 kts | 227° |
| 2026-05-08 07:15 | 1.35229 | 103.98989 | 26 ft | 0 kts | 203° |
| 2026-05-08 07:18 | 1.35224 | 103.98987 | 25 ft | 2 kts | 201° |
| 2026-05-08 07:19 | 1.35197 | 103.98976 | 27 ft | 6 kts | 204° |
| 2026-05-08 07:19 | 1.35140 | 103.98959 | 23 ft | 11 kts | 184° |
| 2026-05-08 07:19 | 1.35053 | 103.98969 | 26 ft | 15 kts | 172° |
| 2026-05-08 07:19 | 1.34941 | 103.98978 | 24 ft | 16 kts | 177° |
| 2026-05-08 07:20 | 1.34882 | 103.99019 | 23 ft | 12 kts | 113° |
| 2026-05-08 07:20 | 1.34850 | 103.99099 | 24 ft | 10 kts | 109° |
| 2026-05-08 07:20 | 1.34897 | 103.99150 | 23 ft | 13 kts | 19° |
| 2026-05-08 07:20 | 1.34987 | 103.99188 | 23 ft | 16 kts | 23° |
| 2026-05-08 07:21 | 1.35098 | 103.99235 | 24 ft | 19 kts | 23° |
| 2026-05-08 07:21 | 1.35229 | 103.99291 | 27 ft | 22 kts | 23° |
| 2026-05-08 07:21 | 1.35376 | 103.99353 | 23 ft | 24 kts | 22° |
| 2026-05-08 07:21 | 1.35536 | 103.99420 | 26 ft | 24 kts | 22° |
| 2026-05-08 07:22 | 1.35687 | 103.99484 | 23 ft | 23 kts | 25° |
| 2026-05-08 07:22 | 1.35832 | 103.99543 | 23 ft | 22 kts | 23° |
| 2026-05-08 07:22 | 1.35973 | 103.99603 | 24 ft | 22 kts | 24° |
| 2026-05-08 07:22 | 1.36096 | 103.99656 | 23 ft | 10 kts | 22° |
| 2026-05-08 07:23 | 1.36134 | 103.99707 | 23 ft | 10 kts | 90° |
| 2026-05-08 07:23 | 1.36110 | 103.99769 | 23 ft | 10 kts | 114° |
| 2026-05-08 07:23 | 1.36086 | 103.99824 | 25 ft | 8 kts | 114° |
| 2026-05-08 07:23 | 1.36046 | 103.99830 | 23 ft | 0 kts | 203° |
| 2026-05-08 07:24 | 1.35998 | 103.99808 | 24 ft | 28 kts | 203° |
| 2026-05-08 07:25 | 1.35591 | 103.99636 | 23 ft | 97 kts | 203° |
| 2026-05-08 07:25 | 1.34787 | 103.99298 | 25 ft | 151 kts | 202° |
| 2026-05-08 07:25 | 1.32638 | 103.98384 | 780 ft | 180 kts | 201° |
| 2026-05-08 07:26 | 1.31469 | 103.97906 | 1264 ft | 183 kts | 203° |
| 2026-05-08 07:26 | 1.30300 | 103.97416 | 1833 ft | 180 kts | 204° |
| 2026-05-08 07:26 | 1.29139 | 103.96926 | 2382 ft | 181 kts | 204° |
| 2026-05-08 07:26 | 1.28680 | 103.96731 | 2599 ft | 181 kts | 204° |
| 2026-05-08 07:27 | 1.28310 | 103.96575 | 2770 ft | 181 kts | 204° |
| 2026-05-08 07:27 | 1.27142 | 103.96078 | 3273 ft | 192 kts | 204° |
| 2026-05-08 07:27 | 1.25832 | 103.95523 | 3478 ft | 215 kts | 204° |
| 2026-05-08 07:27 | 1.24397 | 103.94930 | 3780 ft | 228 kts | 199° |
| 2026-05-08 07:28 | 1.22817 | 103.94870 | 4289 ft | 234 kts | 162° |
| 2026-05-08 07:28 | 1.21437 | 103.95736 | 4938 ft | 238 kts | 140° |
| 2026-05-08 07:28 | 1.20194 | 103.96838 | 5608 ft | 240 kts | 139° |
| 2026-05-08 07:28 | 1.18939 | 103.97948 | 6294 ft | 242 kts | 139° |
| 2026-05-08 07:29 | 1.17669 | 103.99065 | 6940 ft | 245 kts | 140° |
| 2026-05-08 07:29 | 1.16424 | 104.00231 | 7612 ft | 247 kts | 128° |
| 2026-05-08 07:29 | 1.15766 | 104.01811 | 8266 ft | 251 kts | 95° |
| 2026-05-08 07:29 | 1.16034 | 104.03523 | 8981 ft | 253 kts | 65° |
| 2026-05-08 07:30 | 1.17116 | 104.04900 | 9669 ft | 257 kts | 36° |
| 2026-05-08 07:30 | 1.18734 | 104.05593 | 10299 ft | 260 kts | 7° |
| 2026-05-08 07:30 | 1.20518 | 104.05424 | 11000 ft | 261 kts | 339° |
| 2026-05-08 07:30 | 1.22046 | 104.04414 | 11491 ft | 273 kts | 313° |
| 2026-05-08 07:31 | 1.23261 | 104.02844 | 11688 ft | 298 kts | 305° |
| 2026-05-08 07:31 | 1.24475 | 104.01051 | 11862 ft | 322 kts | 303° |
| 2026-05-08 07:31 | 1.25748 | 103.99111 | 12038 ft | 344 kts | 303° |
| 2026-05-08 07:31 | 1.27089 | 103.97062 | 12427 ft | 357 kts | 303° |
| 2026-05-08 07:32 | 1.28445 | 103.95001 | 13026 ft | 362 kts | 304° |
| 2026-05-08 07:32 | 1.29841 | 103.92892 | 13714 ft | 365 kts | 304° |
| 2026-05-08 07:32 | 1.31258 | 103.90765 | 14306 ft | 369 kts | 304° |
| 2026-05-08 07:32 | 1.32690 | 103.88623 | 14910 ft | 373 kts | 304° |
| 2026-05-08 07:33 | 1.34142 | 103.86457 | 15514 ft | 377 kts | 304° |
| 2026-05-08 07:33 | 1.35610 | 103.84271 | 16107 ft | 381 kts | 304° |
| 2026-05-08 07:33 | 1.37090 | 103.82068 | 16708 ft | 384 kts | 304° |
| 2026-05-08 07:33 | 1.38593 | 103.79834 | 17299 ft | 388 kts | 304° |
| 2026-05-08 07:34 | 1.40105 | 103.77585 | 17872 ft | 392 kts | 304° |
| 2026-05-08 07:34 | 1.41639 | 103.75305 | 18399 ft | 396 kts | 304° |
| 2026-05-08 07:34 | 1.43180 | 103.73014 | 18889 ft | 399 kts | 305° |
| 2026-05-08 07:34 | 1.44739 | 103.70696 | 19396 ft | 403 kts | 305° |
| 2026-05-08 07:35 | 1.46306 | 103.68366 | 19855 ft | 406 kts | 305° |
| 2026-05-08 07:35 | 1.47888 | 103.66014 | 20340 ft | 409 kts | 305° |
| 2026-05-08 07:35 | 1.49465 | 103.63669 | 20793 ft | 412 kts | 305° |
| 2026-05-08 07:35 | 1.51070 | 103.61282 | 21256 ft | 416 kts | 305° |
| 2026-05-08 07:36 | 1.52691 | 103.58871 | 21719 ft | 419 kts | 305° |
| 2026-05-08 07:36 | 1.54326 | 103.56440 | 22168 ft | 422 kts | 305° |
| 2026-05-08 07:36 | 1.55968 | 103.53999 | 22618 ft | 425 kts | 305° |
| 2026-05-08 07:36 | 1.57627 | 103.51530 | 23067 ft | 428 kts | 305° |
| 2026-05-08 07:37 | 1.59297 | 103.49047 | 23355 ft | 434 kts | 305° |
| 2026-05-08 07:37 | 1.60987 | 103.46534 | 23577 ft | 436 kts | 305° |
| 2026-05-08 07:37 | 1.62674 | 103.44023 | 23780 ft | 434 kts | 305° |
| 2026-05-08 07:37 | 1.64357 | 103.41520 | 23801 ft | 434 kts | 305° |
| 2026-05-08 07:38 | 1.66040 | 103.39016 | 23812 ft | 433 kts | 305° |
| 2026-05-08 07:38 | 1.67719 | 103.36518 | 23822 ft | 433 kts | 305° |
| 2026-05-08 07:38 | 1.69395 | 103.34024 | 23831 ft | 433 kts | 305° |
| 2026-05-08 07:38 | 1.71080 | 103.31518 | 23832 ft | 434 kts | 305° |
| 2026-05-08 07:39 | 1.72742 | 103.29046 | 23828 ft | 434 kts | 305° |
| 2026-05-08 07:39 | 1.74425 | 103.26542 | 23827 ft | 435 kts | 305° |
| 2026-05-08 07:39 | 1.76126 | 103.24011 | 23838 ft | 443 kts | 305° |
| 2026-05-08 07:39 | 1.77864 | 103.21426 | 23836 ft | 452 kts | 305° |
| 2026-05-08 07:40 | 1.79631 | 103.18798 | 23839 ft | 459 kts | 305° |
| 2026-05-08 07:40 | 1.81412 | 103.16147 | 23830 ft | 458 kts | 305° |
| 2026-05-08 07:40 | 1.83180 | 103.13514 | 23824 ft | 456 kts | 305° |
| 2026-05-08 07:40 | 1.84946 | 103.10885 | 23825 ft | 455 kts | 305° |
| 2026-05-08 07:41 | 1.86711 | 103.08258 | 23822 ft | 454 kts | 305° |
| 2026-05-08 07:41 | 1.88468 | 103.05643 | 23828 ft | 454 kts | 305° |
| 2026-05-08 07:41 | 1.90235 | 103.03012 | 23830 ft | 454 kts | 305° |
| 2026-05-08 07:41 | 1.91996 | 103.00393 | 23832 ft | 455 kts | 305° |
| 2026-05-08 07:42 | 1.93760 | 102.97766 | 23834 ft | 455 kts | 305° |
| 2026-05-08 07:42 | 1.95507 | 102.95165 | 23591 ft | 444 kts | 305° |
| 2026-05-08 07:42 | 1.97208 | 102.92630 | 23372 ft | 433 kts | 305° |
| 2026-05-08 07:42 | 1.98876 | 102.90147 | 23117 ft | 428 kts | 305° |
| 2026-05-08 07:43 | 2.00536 | 102.87676 | 22861 ft | 427 kts | 305° |
| 2026-05-08 07:43 | 2.02189 | 102.85216 | 22612 ft | 426 kts | 305° |
| 2026-05-08 07:43 | 2.03830 | 102.82774 | 22356 ft | 422 kts | 305° |
| 2026-05-08 07:43 | 2.05440 | 102.80376 | 22093 ft | 418 kts | 305° |
| 2026-05-08 07:44 | 2.07056 | 102.77970 | 21843 ft | 416 kts | 305° |
| 2026-05-08 07:44 | 2.08677 | 102.75556 | 21613 ft | 419 kts | 305° |
| 2026-05-08 07:44 | 2.10302 | 102.73137 | 21371 ft | 419 kts | 305° |
| 2026-05-08 07:44 | 2.11920 | 102.70725 | 21113 ft | 415 kts | 305° |
| 2026-05-08 07:45 | 2.13525 | 102.68336 | 20649 ft | 412 kts | 305° |
| 2026-05-08 07:45 | 2.15116 | 102.65969 | 20188 ft | 408 kts | 306° |
| 2026-05-08 07:45 | 2.17011 | 102.63904 | 19803 ft | 400 kts | 325° |
| 2026-05-08 07:45 | 2.19346 | 102.62499 | 19725 ft | 386 kts | 334° |
| 2026-05-08 07:46 | 2.21761 | 102.61277 | 19609 ft | 393 kts | 335° |
| 2026-05-08 07:46 | 2.24249 | 102.60058 | 19413 ft | 401 kts | 335° |
| 2026-05-08 07:46 | 2.26752 | 102.58826 | 19181 ft | 399 kts | 335° |
| 2026-05-08 07:46 | 2.29234 | 102.57589 | 18948 ft | 396 kts | 335° |
| 2026-05-08 07:47 | 2.31693 | 102.56349 | 18730 ft | 394 kts | 335° |
| 2026-05-08 07:47 | 2.34105 | 102.55124 | 18502 ft | 393 kts | 335° |
| 2026-05-08 07:47 | 2.36539 | 102.53884 | 18286 ft | 392 kts | 334° |
| 2026-05-08 07:47 | 2.38964 | 102.52646 | 18061 ft | 390 kts | 334° |
| 2026-05-08 07:48 | 2.41384 | 102.51411 | 17802 ft | 390 kts | 334° |
| 2026-05-08 07:48 | 2.43794 | 102.50181 | 17540 ft | 389 kts | 334° |
| 2026-05-08 07:48 | 2.46175 | 102.48966 | 17304 ft | 388 kts | 334° |
| 2026-05-08 07:48 | 2.48572 | 102.47743 | 17062 ft | 386 kts | 334° |
| 2026-05-08 07:49 | 2.50943 | 102.46478 | 16801 ft | 386 kts | 328° |
| 2026-05-08 07:49 | 2.52924 | 102.44669 | 16556 ft | 387 kts | 312° |
| 2026-05-08 07:49 | 2.54690 | 102.42644 | 16314 ft | 385 kts | 313° |
| 2026-05-08 07:49 | 2.56474 | 102.40655 | 16069 ft | 383 kts | 313° |
| 2026-05-08 07:50 | 2.58269 | 102.38692 | 15830 ft | 382 kts | 314° |
| 2026-05-08 07:50 | 2.60064 | 102.36746 | 15609 ft | 380 kts | 314° |
| 2026-05-08 07:50 | 2.61845 | 102.34819 | 15489 ft | 375 kts | 314° |
| 2026-05-08 07:50 | 2.63604 | 102.32915 | 15367 ft | 372 kts | 314° |
| 2026-05-08 07:51 | 2.65352 | 102.31020 | 15231 ft | 370 kts | 314° |
| 2026-05-08 07:51 | 2.67109 | 102.29115 | 15135 ft | 375 kts | 314° |
| 2026-05-08 07:51 | 2.68887 | 102.27187 | 15027 ft | 376 kts | 314° |
| 2026-05-08 07:51 | 2.70661 | 102.25286 | 14893 ft | 373 kts | 316° |
| 2026-05-08 07:52 | 2.72527 | 102.23482 | 14849 ft | 372 kts | 318° |
| 2026-05-08 07:52 | 2.74412 | 102.21716 | 14839 ft | 372 kts | 318° |
| 2026-05-08 07:52 | 2.76301 | 102.19934 | 14839 ft | 373 kts | 318° |
| 2026-05-08 07:52 | 2.78016 | 102.17990 | 14814 ft | 375 kts | 303° |
| 2026-05-08 07:53 | 2.79174 | 102.15677 | 14762 ft | 370 kts | 292° |
| 2026-05-08 07:53 | 2.79880 | 102.13230 | 14654 ft | 361 kts | 280° |
| 2026-05-08 07:53 | 2.80068 | 102.10791 | 14582 ft | 349 kts | 271° |
| 2026-05-08 07:53 | 2.80085 | 102.08403 | 14501 ft | 337 kts | 270° |
| 2026-05-08 07:54 | 2.80084 | 102.06097 | 14380 ft | 328 kts | 270° |
| 2026-05-08 07:54 | 2.80084 | 102.03826 | 14089 ft | 325 kts | 270° |
| 2026-05-08 07:54 | 2.80092 | 102.01568 | 13793 ft | 323 kts | 270° |
| 2026-05-08 07:54 | 2.80243 | 101.99333 | 13436 ft | 322 kts | 284° |
| 2026-05-08 07:55 | 2.81061 | 101.97267 | 13093 ft | 319 kts | 302° |
| 2026-05-08 07:55 | 2.82307 | 101.95447 | 12814 ft | 315 kts | 307° |
| 2026-05-08 07:55 | 2.83604 | 101.93712 | 12456 ft | 314 kts | 308° |
| 2026-05-08 07:55 | 2.84931 | 101.91968 | 12105 ft | 314 kts | 308° |
| 2026-05-08 07:56 | 2.86247 | 101.90233 | 11828 ft | 311 kts | 308° |
| 2026-05-08 07:56 | 2.87549 | 101.88505 | 11512 ft | 310 kts | 308° |
| 2026-05-08 07:56 | 2.88835 | 101.86788 | 11234 ft | 307 kts | 307° |
| 2026-05-08 07:56 | 2.90109 | 101.85079 | 10896 ft | 307 kts | 307° |
| 2026-05-08 07:57 | 2.91381 | 101.83369 | 10664 ft | 303 kts | 307° |
| 2026-05-08 07:57 | 2.92204 | 101.82260 | 10611 ft | 297 kts | 307° |
| 2026-05-08 07:57 | 2.93426 | 101.80612 | 10358 ft | 294 kts | 307° |
| 2026-05-08 07:57 | 2.94643 | 101.78970 | 10103 ft | 293 kts | 307° |
| 2026-05-08 07:58 | 2.96260 | 101.76787 | 9759 ft | 290 kts | 307° |
| 2026-05-08 07:58 | 2.97050 | 101.75721 | 9588 ft | 289 kts | 307° |
| 2026-05-08 07:58 | 2.98239 | 101.74115 | 9315 ft | 287 kts | 307° |
| 2026-05-08 07:58 | 2.99426 | 101.72512 | 9047 ft | 285 kts | 307° |
| 2026-05-08 07:59 | 3.00604 | 101.70921 | 8754 ft | 284 kts | 307° |
| 2026-05-08 07:59 | 3.01770 | 101.69345 | 8484 ft | 282 kts | 307° |
| 2026-05-08 07:59 | 3.03316 | 101.67256 | 8091 ft | 281 kts | 307° |
| 2026-05-08 07:59 | 3.04088 | 101.66214 | 7937 ft | 279 kts | 307° |
| 2026-05-08 08:00 | 3.05232 | 101.64669 | 7672 ft | 278 kts | 307° |
| 2026-05-08 08:00 | 3.06364 | 101.63139 | 7487 ft | 273 kts | 307° |
| 2026-05-08 08:00 | 3.07454 | 101.61668 | 7411 ft | 264 kts | 307° |
| 2026-05-08 08:00 | 3.08376 | 101.60145 | 7328 ft | 255 kts | 287° |
| 2026-05-08 08:01 | 3.08476 | 101.58476 | 7297 ft | 239 kts | 259° |
| 2026-05-08 08:01 | 3.07928 | 101.56959 | 7125 ft | 228 kts | 239° |
| 2026-05-08 08:01 | 3.07072 | 101.55634 | 6807 ft | 226 kts | 234° |
| 2026-05-08 08:01 | 3.06203 | 101.54374 | 6678 ft | 213 kts | 234° |
| 2026-05-08 08:02 | 3.05209 | 101.53313 | 6383 ft | 208 kts | 208° |
| 2026-05-08 08:02 | 3.03827 | 101.53059 | 6027 ft | 205 kts | 166° |
| 2026-05-08 08:02 | 3.02586 | 101.53697 | 5697 ft | 203 kts | 147° |
| 2026-05-08 08:02 | 3.01386 | 101.54420 | 5373 ft | 202 kts | 149° |
| 2026-05-08 08:03 | 3.00185 | 101.55145 | 5092 ft | 200 kts | 148° |
| 2026-05-08 08:03 | 2.99019 | 101.55894 | 4831 ft | 199 kts | 147° |
| 2026-05-08 08:03 | 2.97865 | 101.56660 | 4576 ft | 198 kts | 146° |
| 2026-05-08 08:03 | 2.96735 | 101.57418 | 4317 ft | 194 kts | 146° |
| 2026-05-08 08:04 | 2.95629 | 101.58165 | 4066 ft | 189 kts | 146° |
| 2026-05-08 08:04 | 2.94548 | 101.58894 | 3826 ft | 185 kts | 146° |
| 2026-05-08 08:04 | 2.93492 | 101.59608 | 3587 ft | 182 kts | 146° |
| 2026-05-08 08:04 | 2.92454 | 101.60308 | 3355 ft | 178 kts | 146° |
| 2026-05-08 08:05 | 2.91431 | 101.61001 | 3140 ft | 180 kts | 146° |
| 2026-05-08 08:05 | 2.90400 | 101.61695 | 2921 ft | 179 kts | 146° |
| 2026-05-08 08:05 | 2.89373 | 101.62388 | 2680 ft | 177 kts | 146° |
| 2026-05-08 08:05 | 2.88362 | 101.63071 | 2443 ft | 171 kts | 146° |
| 2026-05-08 08:06 | 2.87405 | 101.63717 | 2249 ft | 162 kts | 146° |
| 2026-05-08 08:06 | 2.86484 | 101.64340 | 2038 ft | 159 kts | 146° |
| 2026-05-08 08:06 | 2.85570 | 101.64957 | 1841 ft | 158 kts | 146° |
| 2026-05-08 08:06 | 2.84696 | 101.65547 | 1635 ft | 147 kts | 147° |
| 2026-05-08 08:07 | 2.83862 | 101.66111 | 1445 ft | 145 kts | 147° |
| 2026-05-08 08:07 | 2.83032 | 101.66671 | 1254 ft | 144 kts | 147° |
| 2026-05-08 08:07 | 2.82207 | 101.67228 | 1070 ft | 141 kts | 147° |
| 2026-05-08 08:07 | 2.81409 | 101.67766 | 893 ft | 140 kts | 147° |
| 2026-05-08 08:08 | 2.80585 | 101.68306 | 704 ft | 146 kts | 144° |
| 2026-05-08 08:08 | 2.79722 | 101.68917 | 555 ft | 157 kts | 144° |
| 2026-05-08 08:08 | 2.78816 | 101.69543 | 326 ft | 159 kts | 144° |
| 2026-05-08 08:08 | 2.77898 | 101.70160 | 133 ft | 159 kts | 145° |
| 2026-05-08 08:09 | 2.77008 | 101.70749 | 64 ft | 142 kts | 145° |
| 2026-05-08 08:09 | 2.76330 | 101.71206 | 68 ft | 89 kts | 145° |
| 2026-05-08 08:09 | 2.75972 | 101.71448 | 73 ft | 41 kts | 145° |
| 2026-05-08 08:09 | 2.75754 | 101.71553 | 68 ft | 33 kts | 163° |
| 2026-05-08 08:10 | 2.75601 | 101.71570 | 75 ft | 12 kts | 180° |
| 2026-05-08 08:10 | 2.75542 | 101.71515 | 67 ft | 13 kts | 236° |
| 2026-05-08 08:10 | 2.75493 | 101.71444 | 70 ft | 12 kts | 235° |
| 2026-05-08 08:10 | 2.75445 | 101.71374 | 69 ft | 12 kts | 236° |
| 2026-05-08 08:11 | 2.75398 | 101.71305 | 68 ft | 12 kts | 236° |
| 2026-05-08 08:11 | 2.75353 | 101.71238 | 72 ft | 11 kts | 236° |
| 2026-05-08 08:11 | 2.75308 | 101.71173 | 69 ft | 11 kts | 236° |
| 2026-05-08 08:11 | 2.75266 | 101.71109 | 67 ft | 11 kts | 236° |
| 2026-05-08 08:12 | 2.75223 | 101.71048 | 72 ft | 11 kts | 236° |
| 2026-05-08 08:12 | 2.75183 | 101.70989 | 72 ft | 12 kts | 236° |
| 2026-05-08 08:12 | 2.75130 | 101.70911 | 70 ft | 16 kts | 236° |
| 2026-05-08 08:12 | 2.75083 | 101.70841 | 70 ft | 9 kts | 236° |
| 2026-05-08 08:13 | 2.75080 | 101.70785 | 64 ft | 9 kts | 311° |
| 2026-05-08 08:13 | 2.75143 | 101.70742 | 70 ft | 13 kts | 327° |
| 2026-05-08 08:13 | 2.75190 | 101.70718 | 68 ft | 7 kts | 328° |
| 2026-05-08 08:13 | 2.75243 | 101.70703 | 67 ft | 7 kts | 334° |
| 2026-05-08 08:14 | 2.75271 | 101.70683 | 70 ft | 4 kts | 323° |
| 2026-05-08 08:14 | 2.75284 | 101.70671 | 65 ft | 2 kts | 310° |
| 2026-05-08 08:14 | 2.75287 | 101.70667 | 68 ft | 0 kts | 310° |